sensor_id;sensor_type;location;lat;lon;timestamp;P1;durP1;ratioP1;P2;durP2;ratioP2
20970;SDS011;10644;48.834;10.088;2023-03-19T00:00:47;9.60;;;6.37;;
20970;SDS011;10644;48.834;10.088;2023-03-19T00:03:22;13.30;;;7.60;;
20970;SDS011;10644;48.834;10.088;2023-03-19T00:05:56;21.83;;;6.77;;
20970;SDS011;10644;48.834;10.088;2023-03-19T00:08:26;18.07;;;7.90;;
20970;SDS011;10644;48.834;10.088;2023-03-19T00:11:09;10.43;;;7.40;;
20970;SDS011;10644;48.834;10.088;2023-03-19T00:13:41;16.17;;;7.73;;
20970;SDS011;10644;48.834;10.088;2023-03-19T00:16:17;18.90;;;6.60;;
20970;SDS011;10644;48.834;10.088;2023-03-19T00:21:24;17.93;;;8.23;;
20970;SDS011;10644;48.834;10.088;2023-03-19T00:24:02;23.90;;;8.23;;
20970;SDS011;10644;48.834;10.088;2023-03-19T00:29:56;18.83;;;8.60;;
20970;SDS011;10644;48.834;10.088;2023-03-19T00:32:31;19.73;;;9.50;;
20970;SDS011;10644;48.834;10.088;2023-03-19T00:37:39;39.13;;;10.60;;
20970;SDS011;10644;48.834;10.088;2023-03-19T00:40:07;32.80;;;10.13;;
20970;SDS011;10644;48.834;10.088;2023-03-19T00:42:34;28.77;;;9.70;;
20970;SDS011;10644;48.834;10.088;2023-03-19T00:45:14;27.20;;;10.17;;
20970;SDS011;10644;48.834;10.088;2023-03-19T00:47:47;29.63;;;10.77;;
20970;SDS011;10644;48.834;10.088;2023-03-19T00:53:07;35.83;;;13.73;;
20970;SDS011;10644;48.834;10.088;2023-03-19T00:55:51;40.20;;;13.70;;
20970;SDS011;10644;48.834;10.088;2023-03-19T00:58:17;37.63;;;15.53;;
20970;SDS011;10644;48.834;10.088;2023-03-19T01:00:58;63.43;;;16.10;;
20970;SDS011;10644;48.834;10.088;2023-03-19T01:06:12;21.27;;;11.50;;
20970;SDS011;10644;48.834;10.088;2023-03-19T01:08:44;30.23;;;13.17;;
20970;SDS011;10644;48.834;10.088;2023-03-19T01:11:16;33.80;;;12.30;;
20970;SDS011;10644;48.834;10.088;2023-03-19T01:13:43;25.40;;;11.70;;
20970;SDS011;10644;48.834;10.088;2023-03-19T01:16:26;15.57;;;10.43;;
20970;SDS011;10644;48.834;10.088;2023-03-19T01:18:55;25.33;;;10.03;;
20970;SDS011;10644;48.834;10.088;2023-03-19T01:21:28;38.20;;;12.73;;
20970;SDS011;10644;48.834;10.088;2023-03-19T01:23:55;24.40;;;10.97;;
20970;SDS011;10644;48.834;10.088;2023-03-19T01:37:04;16.13;;;9.83;;
20970;SDS011;10644;48.834;10.088;2023-03-19T01:39:31;21.80;;;10.03;;
20970;SDS011;10644;48.834;10.088;2023-03-19T01:42:07;22.70;;;9.97;;
20970;SDS011;10644;48.834;10.088;2023-03-19T01:47:58;26.30;;;9.53;;
20970;SDS011;10644;48.834;10.088;2023-03-19T02:01:56;16.67;;;10.60;;
20970;SDS011;10644;48.834;10.088;2023-03-19T02:04:30;14.50;;;10.33;;
20970;SDS011;10644;48.834;10.088;2023-03-19T02:07:01;23.77;;;10.83;;
20970;SDS011;10644;48.834;10.088;2023-03-19T02:09:27;15.90;;;9.90;;
20970;SDS011;10644;48.834;10.088;2023-03-19T02:11:54;26.40;;;10.83;;
20970;SDS011;10644;48.834;10.088;2023-03-19T02:17:28;20.20;;;11.03;;
20970;SDS011;10644;48.834;10.088;2023-03-19T02:20:03;12.27;;;8.73;;
20970;SDS011;10644;48.834;10.088;2023-03-19T02:22:40;33.80;;;10.63;;
20970;SDS011;10644;48.834;10.088;2023-03-19T02:25:26;10.20;;;6.20;;
20970;SDS011;10644;48.834;10.088;2023-03-19T02:30:58;18.70;;;9.30;;
20970;SDS011;10644;48.834;10.088;2023-03-19T02:38:24;19.47;;;9.37;;
20970;SDS011;10644;48.834;10.088;2023-03-19T02:40:56;23.83;;;10.50;;
20970;SDS011;10644;48.834;10.088;2023-03-19T02:43:40;16.00;;;9.10;;
20970;SDS011;10644;48.834;10.088;2023-03-19T02:46:08;23.13;;;10.27;;
20970;SDS011;10644;48.834;10.088;2023-03-19T02:48:54;19.73;;;10.27;;
20970;SDS011;10644;48.834;10.088;2023-03-19T02:51:31;16.40;;;10.10;;
20970;SDS011;10644;48.834;10.088;2023-03-19T02:54:11;23.20;;;10.83;;
20970;SDS011;10644;48.834;10.088;2023-03-19T02:56:38;24.37;;;10.17;;
20970;SDS011;10644;48.834;10.088;2023-03-19T02:59:13;27.33;;;10.83;;
20970;SDS011;10644;48.834;10.088;2023-03-19T03:01:46;24.20;;;11.30;;
20970;SDS011;10644;48.834;10.088;2023-03-19T03:07:09;19.70;;;10.10;;
20970;SDS011;10644;48.834;10.088;2023-03-19T03:09:51;34.77;;;11.77;;
20970;SDS011;10644;48.834;10.088;2023-03-19T03:15:03;14.50;;;9.60;;
20970;SDS011;10644;48.834;10.088;2023-03-19T03:17:30;25.40;;;11.20;;
20970;SDS011;10644;48.834;10.088;2023-03-19T03:20:08;13.13;;;9.13;;
20970;SDS011;10644;48.834;10.088;2023-03-19T03:22:35;32.70;;;11.53;;
20970;SDS011;10644;48.834;10.088;2023-03-19T03:28:13;19.90;;;10.30;;
20970;SDS011;10644;48.834;10.088;2023-03-19T03:33:47;19.53;;;9.83;;
20970;SDS011;10644;48.834;10.088;2023-03-19T03:36:25;16.10;;;9.37;;
20970;SDS011;10644;48.834;10.088;2023-03-19T03:38:51;18.67;;;8.87;;
20970;SDS011;10644;48.834;10.088;2023-03-19T03:43:48;19.03;;;10.00;;
20970;SDS011;10644;48.834;10.088;2023-03-19T03:46:27;14.10;;;9.33;;
20970;SDS011;10644;48.834;10.088;2023-03-19T03:51:55;16.97;;;11.00;;
20970;SDS011;10644;48.834;10.088;2023-03-19T03:54:28;20.87;;;10.73;;
20970;SDS011;10644;48.834;10.088;2023-03-19T03:57:07;16.17;;;10.17;;
20970;SDS011;10644;48.834;10.088;2023-03-19T03:59:32;17.47;;;10.10;;
20970;SDS011;10644;48.834;10.088;2023-03-19T04:02:07;21.13;;;10.70;;
20970;SDS011;10644;48.834;10.088;2023-03-19T04:04:34;14.30;;;10.57;;
20970;SDS011;10644;48.834;10.088;2023-03-19T04:07:01;19.80;;;11.20;;
20970;SDS011;10644;48.834;10.088;2023-03-19T04:09:32;14.97;;;10.33;;
20970;SDS011;10644;48.834;10.088;2023-03-19T04:11:59;14.63;;;10.70;;
20970;SDS011;10644;48.834;10.088;2023-03-19T04:17:23;19.30;;;10.37;;
20970;SDS011;10644;48.834;10.088;2023-03-19T04:19:49;20.43;;;11.10;;
20970;SDS011;10644;48.834;10.088;2023-03-19T04:22:23;22.93;;;10.57;;
20970;SDS011;10644;48.834;10.088;2023-03-19T04:27:34;20.90;;;12.90;;
20970;SDS011;10644;48.834;10.088;2023-03-19T04:33:14;15.33;;;11.10;;
20970;SDS011;10644;48.834;10.088;2023-03-19T04:35:56;18.67;;;11.57;;
20970;SDS011;10644;48.834;10.088;2023-03-19T04:38:22;18.60;;;11.60;;
20970;SDS011;10644;48.834;10.088;2023-03-19T04:41:08;21.30;;;11.90;;
20970;SDS011;10644;48.834;10.088;2023-03-19T04:43:38;17.40;;;10.93;;
20970;SDS011;10644;48.834;10.088;2023-03-19T04:46:05;23.23;;;11.67;;
20970;SDS011;10644;48.834;10.088;2023-03-19T04:57:16;14.23;;;9.57;;
20970;SDS011;10644;48.834;10.088;2023-03-19T04:59:53;15.73;;;10.20;;
20970;SDS011;10644;48.834;10.088;2023-03-19T05:05:19;19.73;;;10.80;;
20970;SDS011;10644;48.834;10.088;2023-03-19T05:10:18;21.33;;;12.63;;
20970;SDS011;10644;48.834;10.088;2023-03-19T05:16:03;17.93;;;11.07;;
20970;SDS011;10644;48.834;10.088;2023-03-19T05:18:41;12.83;;;8.40;;
20970;SDS011;10644;48.834;10.088;2023-03-19T05:21:17;11.23;;;7.80;;
20970;SDS011;10644;48.834;10.088;2023-03-19T05:23:50;16.77;;;8.50;;
20970;SDS011;10644;48.834;10.088;2023-03-19T05:26:28;11.30;;;7.20;;
20970;SDS011;10644;48.834;10.088;2023-03-19T05:28:55;11.57;;;7.77;;
20970;SDS011;10644;48.834;10.088;2023-03-19T05:31:25;10.27;;;7.60;;
20970;SDS011;10644;48.834;10.088;2023-03-19T05:33:50;11.93;;;8.80;;
20970;SDS011;10644;48.834;10.088;2023-03-19T05:36:23;16.00;;;9.63;;
20970;SDS011;10644;48.834;10.088;2023-03-19T05:38:56;14.90;;;8.90;;
20970;SDS011;10644;48.834;10.088;2023-03-19T05:44:26;21.50;;;10.30;;
20970;SDS011;10644;48.834;10.088;2023-03-19T05:49:25;16.50;;;9.53;;
20970;SDS011;10644;48.834;10.088;2023-03-19T05:51:51;20.43;;;9.87;;
20970;SDS011;10644;48.834;10.088;2023-03-19T05:54:30;26.97;;;10.10;;
20970;SDS011;10644;48.834;10.088;2023-03-19T05:57:11;15.83;;;8.40;;
20970;SDS011;10644;48.834;10.088;2023-03-19T05:59:38;14.57;;;8.37;;
20970;SDS011;10644;48.834;10.088;2023-03-19T06:05:02;21.47;;;8.70;;
20970;SDS011;10644;48.834;10.088;2023-03-19T06:10:18;17.50;;;10.17;;
20970;SDS011;10644;48.834;10.088;2023-03-19T06:12:53;43.93;;;10.77;;
20970;SDS011;10644;48.834;10.088;2023-03-19T06:15:32;9.37;;;6.23;;
20970;SDS011;10644;48.834;10.088;2023-03-19T06:18:10;14.13;;;6.13;;
20970;SDS011;10644;48.834;10.088;2023-03-19T06:20:49;45.83;;;9.83;;
20970;SDS011;10644;48.834;10.088;2023-03-19T06:23:20;16.80;;;7.53;;
20970;SDS011;10644;48.834;10.088;2023-03-19T06:25:46;14.63;;;5.60;;
20970;SDS011;10644;48.834;10.088;2023-03-19T06:31:13;8.20;;;4.73;;
20970;SDS011;10644;48.834;10.088;2023-03-19T06:33:45;8.50;;;5.20;;
20970;SDS011;10644;48.834;10.088;2023-03-19T06:36:19;9.33;;;7.03;;
20970;SDS011;10644;48.834;10.088;2023-03-19T06:38:51;12.03;;;6.10;;
20970;SDS011;10644;48.834;10.088;2023-03-19T06:41:20;16.87;;;6.17;;
20970;SDS011;10644;48.834;10.088;2023-03-19T06:49:43;38.63;;;7.90;;
20970;SDS011;10644;48.834;10.088;2023-03-19T07:00:51;20.53;;;5.93;;
20970;SDS011;10644;48.834;10.088;2023-03-19T07:08:34;25.03;;;9.33;;
20970;SDS011;10644;48.834;10.088;2023-03-19T07:13:54;25.50;;;9.57;;
20970;SDS011;10644;48.834;10.088;2023-03-19T07:16:32;30.00;;;19.13;;
20970;SDS011;10644;48.834;10.088;2023-03-19T07:19:04;12.83;;;7.40;;
20970;SDS011;10644;48.834;10.088;2023-03-19T07:21:32;10.13;;;6.67;;
20970;SDS011;10644;48.834;10.088;2023-03-19T07:23:59;23.60;;;13.70;;
20970;SDS011;10644;48.834;10.088;2023-03-19T07:26:32;14.10;;;5.90;;
20970;SDS011;10644;48.834;10.088;2023-03-19T07:31:58;32.47;;;20.53;;
20970;SDS011;10644;48.834;10.088;2023-03-19T07:34:32;11.57;;;6.07;;
20970;SDS011;10644;48.834;10.088;2023-03-19T07:36:57;21.23;;;10.83;;
20970;SDS011;10644;48.834;10.088;2023-03-19T07:39:35;17.30;;;10.00;;
20970;SDS011;10644;48.834;10.088;2023-03-19T07:42:10;8.40;;;5.67;;
20970;SDS011;10644;48.834;10.088;2023-03-19T07:50:13;17.97;;;6.10;;
20970;SDS011;10644;48.834;10.088;2023-03-19T07:52:43;23.40;;;11.60;;
20970;SDS011;10644;48.834;10.088;2023-03-19T08:01:28;12.47;;;5.30;;
20970;SDS011;10644;48.834;10.088;2023-03-19T08:03:56;10.77;;;5.80;;
20970;SDS011;10644;48.834;10.088;2023-03-19T08:06:39;8.00;;;4.30;;
20970;SDS011;10644;48.834;10.088;2023-03-19T08:09:19;16.80;;;8.90;;
20970;SDS011;10644;48.834;10.088;2023-03-19T08:14:45;13.63;;;7.57;;
20970;SDS011;10644;48.834;10.088;2023-03-19T08:19:51;11.47;;;5.77;;
20970;SDS011;10644;48.834;10.088;2023-03-19T08:22:20;7.50;;;5.20;;
20970;SDS011;10644;48.834;10.088;2023-03-19T08:27:48;9.60;;;6.80;;
20970;SDS011;10644;48.834;10.088;2023-03-19T08:30:21;9.13;;;4.93;;
20970;SDS011;10644;48.834;10.088;2023-03-19T08:32:56;7.07;;;4.90;;
20970;SDS011;10644;48.834;10.088;2023-03-19T08:35:22;4.70;;;4.20;;
20970;SDS011;10644;48.834;10.088;2023-03-19T08:38:08;5.23;;;4.23;;
20970;SDS011;10644;48.834;10.088;2023-03-19T08:40:44;9.33;;;5.00;;
20970;SDS011;10644;48.834;10.088;2023-03-19T08:43:17;13.53;;;5.47;;
20970;SDS011;10644;48.834;10.088;2023-03-19T08:45:53;6.03;;;4.50;;
20970;SDS011;10644;48.834;10.088;2023-03-19T08:48:29;7.03;;;4.57;;
20970;SDS011;10644;48.834;10.088;2023-03-19T08:53:29;9.70;;;5.47;;
20970;SDS011;10644;48.834;10.088;2023-03-19T08:56:03;14.20;;;5.27;;
20970;SDS011;10644;48.834;10.088;2023-03-19T09:01:16;15.67;;;6.40;;
20970;SDS011;10644;48.834;10.088;2023-03-19T09:03:43;11.60;;;5.30;;
20970;SDS011;10644;48.834;10.088;2023-03-19T09:06:27;7.87;;;4.70;;
20970;SDS011;10644;48.834;10.088;2023-03-19T09:08:53;8.57;;;5.03;;
20970;SDS011;10644;48.834;10.088;2023-03-19T09:11:28;6.30;;;4.30;;
20970;SDS011;10644;48.834;10.088;2023-03-19T09:14:02;12.20;;;6.13;;
20970;SDS011;10644;48.834;10.088;2023-03-19T09:25:29;61.63;;;25.70;;
20970;SDS011;10644;48.834;10.088;2023-03-19T09:28:05;26.30;;;11.37;;
20970;SDS011;10644;48.834;10.088;2023-03-19T09:30:48;49.80;;;23.03;;
20970;SDS011;10644;48.834;10.088;2023-03-19T09:36:22;29.17;;;14.10;;
20970;SDS011;10644;48.834;10.088;2023-03-19T09:39:01;10.27;;;6.47;;
20970;SDS011;10644;48.834;10.088;2023-03-19T09:41:34;12.10;;;4.77;;
20970;SDS011;10644;48.834;10.088;2023-03-19T09:47:49;29.83;;;16.00;;
20970;SDS011;10644;48.834;10.088;2023-03-19T10:29:52;4.03;;;1.97;;
20970;SDS011;10644;48.834;10.088;2023-03-19T10:35:26;4.00;;;1.90;;
20970;SDS011;10644;48.834;10.088;2023-03-19T10:38:25;7.90;;;2.00;;
20970;SDS011;10644;48.834;10.088;2023-03-19T10:43:46;7.30;;;2.10;;
20970;SDS011;10644;48.834;10.088;2023-03-19T10:52:26;5.40;;;1.83;;
20970;SDS011;10644;48.834;10.088;2023-03-19T10:58:21;3.40;;;2.00;;
20970;SDS011;10644;48.834;10.088;2023-03-19T11:01:13;2.80;;;1.83;;
20970;SDS011;10644;48.834;10.088;2023-03-19T11:27:56;12.40;;;4.70;;
20970;SDS011;10644;48.834;10.088;2023-03-19T11:41:40;2.83;;;2.20;;
20970;SDS011;10644;48.834;10.088;2023-03-19T11:53:05;11.83;;;5.53;;
20970;SDS011;10644;48.834;10.088;2023-03-19T12:09:45;8.40;;;3.30;;
20970;SDS011;10644;48.834;10.088;2023-03-19T12:12:24;11.67;;;3.83;;
20970;SDS011;10644;48.834;10.088;2023-03-19T12:15:00;3.03;;;2.70;;
20970;SDS011;10644;48.834;10.088;2023-03-19T12:23:28;9.57;;;3.30;;
20970;SDS011;10644;48.834;10.088;2023-03-19T12:26:16;8.23;;;3.93;;
20970;SDS011;10644;48.834;10.088;2023-03-19T12:34:37;7.70;;;3.60;;
20970;SDS011;10644;48.834;10.088;2023-03-19T12:40:12;15.00;;;4.00;;
20970;SDS011;10644;48.834;10.088;2023-03-19T12:42:46;5.67;;;3.10;;
20970;SDS011;10644;48.834;10.088;2023-03-19T12:48:03;5.57;;;3.10;;
20970;SDS011;10644;48.834;10.088;2023-03-19T12:50:35;13.50;;;4.03;;
20970;SDS011;10644;48.834;10.088;2023-03-19T12:53:04;5.33;;;2.50;;
20970;SDS011;10644;48.834;10.088;2023-03-19T12:55:43;8.67;;;3.43;;
20970;SDS011;10644;48.834;10.088;2023-03-19T13:01:11;10.43;;;3.47;;
20970;SDS011;10644;48.834;10.088;2023-03-19T13:03:47;4.50;;;3.00;;
20970;SDS011;10644;48.834;10.088;2023-03-19T13:06:34;10.23;;;3.47;;
20970;SDS011;10644;48.834;10.088;2023-03-19T13:20:12;50.37;;;11.13;;
20970;SDS011;10644;48.834;10.088;2023-03-19T13:25:26;6.20;;;2.40;;
20970;SDS011;10644;48.834;10.088;2023-03-19T13:27:56;3.73;;;2.83;;
20970;SDS011;10644;48.834;10.088;2023-03-19T13:30:22;9.23;;;2.70;;
20970;SDS011;10644;48.834;10.088;2023-03-19T13:33:35;8.40;;;3.37;;
20970;SDS011;10644;48.834;10.088;2023-03-19T13:35:49;4.43;;;2.60;;
20970;SDS011;10644;48.834;10.088;2023-03-19T13:38:20;4.53;;;2.90;;
20970;SDS011;10644;48.834;10.088;2023-03-19T14:01:01;10.13;;;3.67;;
20970;SDS011;10644;48.834;10.088;2023-03-19T14:03:27;3.93;;;2.90;;
20970;SDS011;10644;48.834;10.088;2023-03-19T14:05:56;9.57;;;3.00;;
20970;SDS011;10644;48.834;10.088;2023-03-19T14:08:24;5.40;;;2.40;;
20970;SDS011;10644;48.834;10.088;2023-03-19T14:10:56;7.63;;;3.50;;
20970;SDS011;10644;48.834;10.088;2023-03-19T14:15:51;6.00;;;3.03;;
20970;SDS011;10644;48.834;10.088;2023-03-19T14:18:18;15.93;;;4.00;;
20970;SDS011;10644;48.834;10.088;2023-03-19T14:23:24;5.90;;;2.40;;
20970;SDS011;10644;48.834;10.088;2023-03-19T14:28:45;8.80;;;3.50;;
20970;SDS011;10644;48.834;10.088;2023-03-19T14:31:39;12.43;;;3.30;;
20970;SDS011;10644;48.834;10.088;2023-03-19T14:36:37;8.03;;;3.50;;
20970;SDS011;10644;48.834;10.088;2023-03-19T14:39:16;4.37;;;3.77;;
20970;SDS011;10644;48.834;10.088;2023-03-19T14:55:42;8.50;;;3.40;;
20970;SDS011;10644;48.834;10.088;2023-03-19T14:58:14;6.63;;;3.90;;
20970;SDS011;10644;48.834;10.088;2023-03-19T15:00:44;1.77;;;1.17;;
20970;SDS011;10644;48.834;10.088;2023-03-19T15:06:01;6.70;;;1.50;;
20970;SDS011;10644;48.834;10.088;2023-03-19T15:08:29;3.30;;;2.23;;
20970;SDS011;10644;48.834;10.088;2023-03-19T15:19:02;13.67;;;3.47;;
20970;SDS011;10644;48.834;10.088;2023-03-19T15:21:28;6.43;;;2.20;;
20970;SDS011;10644;48.834;10.088;2023-03-19T15:23:55;8.63;;;1.97;;
20970;SDS011;10644;48.834;10.088;2023-03-19T15:26:29;4.80;;;2.20;;
20970;SDS011;10644;48.834;10.088;2023-03-19T15:28:58;5.40;;;1.50;;
20970;SDS011;10644;48.834;10.088;2023-03-19T15:31:39;7.83;;;2.47;;
20970;SDS011;10644;48.834;10.088;2023-03-19T15:34:21;5.70;;;2.13;;
20970;SDS011;10644;48.834;10.088;2023-03-19T15:36:49;4.10;;;2.50;;
20970;SDS011;10644;48.834;10.088;2023-03-19T15:39:20;6.77;;;3.47;;
20970;SDS011;10644;48.834;10.088;2023-03-19T15:41:50;6.40;;;2.70;;
20970;SDS011;10644;48.834;10.088;2023-03-19T15:44:30;7.60;;;3.53;;
20970;SDS011;10644;48.834;10.088;2023-03-19T15:47:03;8.83;;;4.13;;
20970;SDS011;10644;48.834;10.088;2023-03-19T15:49:33;4.13;;;3.37;;
20970;SDS011;10644;48.834;10.088;2023-03-19T15:52:03;7.20;;;3.37;;
20970;SDS011;10644;48.834;10.088;2023-03-19T15:54:31;4.60;;;3.40;;
20970;SDS011;10644;48.834;10.088;2023-03-19T15:56:57;4.73;;;3.43;;
20970;SDS011;10644;48.834;10.088;2023-03-19T15:59:23;11.97;;;4.83;;
20970;SDS011;10644;48.834;10.088;2023-03-19T16:02:03;10.93;;;4.53;;
20970;SDS011;10644;48.834;10.088;2023-03-19T16:04:58;5.93;;;4.07;;
20970;SDS011;10644;48.834;10.088;2023-03-19T16:09:59;9.27;;;4.47;;
20970;SDS011;10644;48.834;10.088;2023-03-19T16:12:43;8.67;;;4.20;;
20970;SDS011;10644;48.834;10.088;2023-03-19T16:20:40;13.43;;;4.60;;
20970;SDS011;10644;48.834;10.088;2023-03-19T16:23:16;5.50;;;3.60;;
20970;SDS011;10644;48.834;10.088;2023-03-19T16:25:43;9.23;;;4.60;;
20970;SDS011;10644;48.834;10.088;2023-03-19T16:28:17;9.13;;;3.93;;
20970;SDS011;10644;48.834;10.088;2023-03-19T16:30:48;7.50;;;3.60;;
20970;SDS011;10644;48.834;10.088;2023-03-19T16:33:15;13.20;;;6.87;;
20970;SDS011;10644;48.834;10.088;2023-03-19T16:35:41;14.90;;;6.40;;
20970;SDS011;10644;48.834;10.088;2023-03-19T16:40:48;8.97;;;4.13;;
20970;SDS011;10644;48.834;10.088;2023-03-19T16:43:31;8.50;;;4.43;;
20970;SDS011;10644;48.834;10.088;2023-03-19T16:46:04;8.63;;;4.10;;
20970;SDS011;10644;48.834;10.088;2023-03-19T16:48:32;12.90;;;5.13;;
20970;SDS011;10644;48.834;10.088;2023-03-19T16:50:58;12.70;;;5.50;;
20970;SDS011;10644;48.834;10.088;2023-03-19T16:53:25;6.50;;;3.90;;
20970;SDS011;10644;48.834;10.088;2023-03-19T16:55:53;7.30;;;4.57;;
20970;SDS011;10644;48.834;10.088;2023-03-19T17:00:49;12.37;;;5.33;;
20970;SDS011;10644;48.834;10.088;2023-03-19T17:03:15;7.03;;;3.30;;
20970;SDS011;10644;48.834;10.088;2023-03-19T17:05:42;9.73;;;3.83;;
20970;SDS011;10644;48.834;10.088;2023-03-19T17:08:09;11.67;;;3.80;;
20970;SDS011;10644;48.834;10.088;2023-03-19T17:10:36;9.67;;;3.50;;
20970;SDS011;10644;48.834;10.088;2023-03-19T17:13:05;8.03;;;3.27;;
20970;SDS011;10644;48.834;10.088;2023-03-19T17:15:32;6.73;;;3.30;;
20970;SDS011;10644;48.834;10.088;2023-03-19T17:18:00;10.03;;;3.77;;
20970;SDS011;10644;48.834;10.088;2023-03-19T17:20:31;9.27;;;3.50;;
20970;SDS011;10644;48.834;10.088;2023-03-19T17:22:59;7.03;;;2.57;;
20970;SDS011;10644;48.834;10.088;2023-03-19T17:25:25;11.30;;;4.20;;
20970;SDS011;10644;48.834;10.088;2023-03-19T17:27:50;6.60;;;3.37;;
20970;SDS011;10644;48.834;10.088;2023-03-19T17:30:16;12.50;;;4.37;;
20970;SDS011;10644;48.834;10.088;2023-03-19T17:32:45;19.13;;;4.30;;
20970;SDS011;10644;48.834;10.088;2023-03-19T17:35:14;6.07;;;3.27;;
20970;SDS011;10644;48.834;10.088;2023-03-19T17:37:42;11.63;;;4.67;;
20970;SDS011;10644;48.834;10.088;2023-03-19T17:42:47;14.27;;;6.27;;
20970;SDS011;10644;48.834;10.088;2023-03-19T17:45:14;10.10;;;4.50;;
20970;SDS011;10644;48.834;10.088;2023-03-19T17:47:47;25.77;;;7.57;;
20970;SDS011;10644;48.834;10.088;2023-03-19T17:50:16;11.60;;;8.20;;
20970;SDS011;10644;48.834;10.088;2023-03-19T17:52:43;18.50;;;9.40;;
20970;SDS011;10644;48.834;10.088;2023-03-19T17:55:21;18.43;;;7.90;;
20970;SDS011;10644;48.834;10.088;2023-03-19T17:57:48;8.83;;;6.37;;
20970;SDS011;10644;48.834;10.088;2023-03-19T18:00:15;7.43;;;5.50;;
20970;SDS011;10644;48.834;10.088;2023-03-19T18:02:41;13.20;;;5.33;;
20970;SDS011;10644;48.834;10.088;2023-03-19T18:05:15;12.87;;;6.73;;
20970;SDS011;10644;48.834;10.088;2023-03-19T18:07:46;12.07;;;8.20;;
20970;SDS011;10644;48.834;10.088;2023-03-19T18:10:16;12.50;;;6.80;;
20970;SDS011;10644;48.834;10.088;2023-03-19T18:12:46;15.60;;;6.50;;
20970;SDS011;10644;48.834;10.088;2023-03-19T18:15:13;18.93;;;8.40;;
20970;SDS011;10644;48.834;10.088;2023-03-19T18:17:40;29.33;;;11.03;;
20970;SDS011;10644;48.834;10.088;2023-03-19T18:20:13;13.37;;;8.57;;
20970;SDS011;10644;48.834;10.088;2023-03-19T18:22:40;21.27;;;9.20;;
20970;SDS011;10644;48.834;10.088;2023-03-19T18:25:10;17.80;;;7.03;;
20970;SDS011;10644;48.834;10.088;2023-03-19T18:27:42;12.70;;;5.80;;
20970;SDS011;10644;48.834;10.088;2023-03-19T18:30:12;6.23;;;4.57;;
20970;SDS011;10644;48.834;10.088;2023-03-19T18:32:40;15.93;;;5.10;;
20970;SDS011;10644;48.834;10.088;2023-03-19T18:35:24;12.90;;;4.03;;
20970;SDS011;10644;48.834;10.088;2023-03-19T18:37:53;14.80;;;4.13;;
20970;SDS011;10644;48.834;10.088;2023-03-19T18:40:22;9.43;;;4.60;;
20970;SDS011;10644;48.834;10.088;2023-03-19T18:42:50;4.70;;;2.73;;
20970;SDS011;10644;48.834;10.088;2023-03-19T18:45:16;3.33;;;3.03;;
20970;SDS011;10644;48.834;10.088;2023-03-19T18:47:43;17.40;;;4.67;;
20970;SDS011;10644;48.834;10.088;2023-03-19T18:52:46;9.23;;;4.30;;
20970;SDS011;10644;48.834;10.088;2023-03-19T18:55:15;7.07;;;3.70;;
20970;SDS011;10644;48.834;10.088;2023-03-19T18:57:47;14.10;;;4.33;;
20970;SDS011;10644;48.834;10.088;2023-03-19T19:00:18;7.10;;;3.60;;
20970;SDS011;10644;48.834;10.088;2023-03-19T19:02:46;8.30;;;4.13;;
20970;SDS011;10644;48.834;10.088;2023-03-19T19:05:17;10.30;;;5.37;;
20970;SDS011;10644;48.834;10.088;2023-03-19T19:07:46;16.57;;;6.40;;
20970;SDS011;10644;48.834;10.088;2023-03-19T19:10:11;20.10;;;6.20;;
20970;SDS011;10644;48.834;10.088;2023-03-19T19:12:39;17.93;;;6.07;;
20970;SDS011;10644;48.834;10.088;2023-03-19T19:15:09;6.03;;;4.47;;
20970;SDS011;10644;48.834;10.088;2023-03-19T19:17:40;23.13;;;7.33;;
20970;SDS011;10644;48.834;10.088;2023-03-19T19:20:06;7.70;;;4.20;;
20970;SDS011;10644;48.834;10.088;2023-03-19T19:22:34;14.87;;;4.43;;
20970;SDS011;10644;48.834;10.088;2023-03-19T19:24:59;10.17;;;4.23;;
20970;SDS011;10644;48.834;10.088;2023-03-19T19:27:25;15.20;;;4.10;;
20970;SDS011;10644;48.834;10.088;2023-03-19T19:29:53;8.43;;;4.53;;
20970;SDS011;10644;48.834;10.088;2023-03-19T19:32:20;11.40;;;4.60;;
20970;SDS011;10644;48.834;10.088;2023-03-19T19:34:48;7.93;;;4.77;;
20970;SDS011;10644;48.834;10.088;2023-03-19T19:37:17;11.70;;;5.87;;
20970;SDS011;10644;48.834;10.088;2023-03-19T19:39:46;13.00;;;6.50;;
20970;SDS011;10644;48.834;10.088;2023-03-19T19:42:12;9.70;;;5.67;;
20970;SDS011;10644;48.834;10.088;2023-03-19T19:44:41;10.27;;;5.90;;
20970;SDS011;10644;48.834;10.088;2023-03-19T19:47:13;14.63;;;6.93;;
20970;SDS011;10644;48.834;10.088;2023-03-19T19:49:40;12.67;;;5.77;;
20970;SDS011;10644;48.834;10.088;2023-03-19T19:52:16;11.83;;;5.50;;
20970;SDS011;10644;48.834;10.088;2023-03-19T19:54:43;7.70;;;4.97;;
20970;SDS011;10644;48.834;10.088;2023-03-19T19:57:19;6.37;;;4.60;;
20970;SDS011;10644;48.834;10.088;2023-03-19T19:59:47;10.03;;;4.50;;
20970;SDS011;10644;48.834;10.088;2023-03-19T20:02:21;13.30;;;4.20;;
20970;SDS011;10644;48.834;10.088;2023-03-19T20:04:48;8.90;;;3.80;;
20970;SDS011;10644;48.834;10.088;2023-03-19T20:07:13;10.33;;;4.00;;
20970;SDS011;10644;48.834;10.088;2023-03-19T20:09:39;5.03;;;3.27;;
20970;SDS011;10644;48.834;10.088;2023-03-19T20:12:11;13.80;;;7.10;;
20970;SDS011;10644;48.834;10.088;2023-03-19T20:14:43;23.90;;;10.57;;
20970;SDS011;10644;48.834;10.088;2023-03-19T20:17:12;16.33;;;9.23;;
20970;SDS011;10644;48.834;10.088;2023-03-19T20:19:42;24.80;;;12.10;;
20970;SDS011;10644;48.834;10.088;2023-03-19T20:22:08;19.70;;;12.07;;
20970;SDS011;10644;48.834;10.088;2023-03-19T20:24:34;18.37;;;11.80;;
20970;SDS011;10644;48.834;10.088;2023-03-19T20:26:59;22.40;;;11.90;;
20970;SDS011;10644;48.834;10.088;2023-03-19T20:29:27;34.97;;;20.03;;
20970;SDS011;10644;48.834;10.088;2023-03-19T20:31:58;26.60;;;15.93;;
20970;SDS011;10644;48.834;10.088;2023-03-19T20:34:25;20.80;;;10.80;;
20970;SDS011;10644;48.834;10.088;2023-03-19T20:36:50;9.27;;;7.13;;
20970;SDS011;10644;48.834;10.088;2023-03-19T20:39:16;10.60;;;7.00;;
20970;SDS011;10644;48.834;10.088;2023-03-19T20:41:42;10.70;;;7.23;;
20970;SDS011;10644;48.834;10.088;2023-03-19T20:44:08;9.50;;;6.90;;
20970;SDS011;10644;48.834;10.088;2023-03-19T20:46:37;9.67;;;6.20;;
20970;SDS011;10644;48.834;10.088;2023-03-19T20:49:03;13.03;;;8.87;;
20970;SDS011;10644;48.834;10.088;2023-03-19T20:51:29;14.87;;;8.10;;
20970;SDS011;10644;48.834;10.088;2023-03-19T20:53:55;14.43;;;8.10;;
20970;SDS011;10644;48.834;10.088;2023-03-19T20:56:22;11.47;;;8.70;;
20970;SDS011;10644;48.834;10.088;2023-03-19T20:58:50;20.67;;;10.17;;
20970;SDS011;10644;48.834;10.088;2023-03-19T21:01:16;25.17;;;11.70;;
20970;SDS011;10644;48.834;10.088;2023-03-19T21:03:42;18.97;;;11.10;;
20970;SDS011;10644;48.834;10.088;2023-03-19T21:06:14;17.23;;;9.77;;
20970;SDS011;10644;48.834;10.088;2023-03-19T21:08:51;20.13;;;10.10;;
20970;SDS011;10644;48.834;10.088;2023-03-19T21:11:21;12.73;;;7.30;;
20970;SDS011;10644;48.834;10.088;2023-03-19T21:13:49;12.17;;;7.47;;
20970;SDS011;10644;48.834;10.088;2023-03-19T21:16:17;11.70;;;6.77;;
20970;SDS011;10644;48.834;10.088;2023-03-19T21:18:45;11.43;;;6.50;;
20970;SDS011;10644;48.834;10.088;2023-03-19T21:21:11;9.07;;;6.73;;
20970;SDS011;10644;48.834;10.088;2023-03-19T21:23:37;9.07;;;6.10;;